To NAV CANADA Home Page Login to a new session Search on AWWS site Disclaimer Vers la page française équivalente Tips FAQ What's new on the site To the Forecasts and Observations / NOTAM section To "File a Flight Plan" website Publications and other links Update of the User's profile FIC Telephone Numbers My Weather Data Folder Route Weather Data Regional Weather Data Local Weather Data To the Forecasts and Observations / NOTAM section
Request Generated 04/24/2019 at 16:18:35 UTC . Weather information available at that time is displayed.

METAR/TAF

QUEBEC/JEAN LESAGE INTL/QC    (show WxCam)

METAR CYQB 241600Z 08020G28KT 10SM -DZ BKN012 OVC021 03/02 A2974 RMK SC6SC2 SLP076=
METAR CYQB 241500Z 07017G26KT 5SM -DZ BKN010 OVC019 02/01 A2973 RMK SF5SC3 SLP073=
METAR CYQB 241400Z 07017G26KT 5SM -SHRA BR BKN009 BKN016 OVC024 02/01 A2972 RMK SF5SC2SC1 CVCTV CLDS EMBD SLP070=

TAF CYQB 241138Z 2412/2512 07020G30KT 2SM -RA BR OVC006 TEMPO
2412/2415 6SM -RA BR OVC012
FM241500 07015G25KT 5SM -RA BR OVC012 TEMPO 2415/2420 6SM -RA BR
FM242000 07012G22KT 6SM -RA BR OVC025
FM250000 07010KT P6SM BKN030
FM250400 07010KT 5SM -SN BR SCT008 OVC012
RMK NXT FCST BY 241800Z=
Your time UTC time
Weather data provided by Environment Canada and NAV CANADA